Siros, Greece
Current Conditions -  °F | °C
As of 3:50 PM on Thursday 30 Oct 2014 (Local Time) from LGSO Reporting Station
Scattered Clouds Scattered Clouds  
Wind Chill: 63°   Ceiling: Unl
Heat Index: 63°   Visibility: 6mi
Dew Point: 54°   Wind: 9mph
Humidity: 72%   Direction: 10°N
Pressure: 30.03"   Gusts: NA
Location:  37.45°N, 24.93°E
Report Text: LGSO 301250Z 01008KT 9999 SCT018 17/12 Q1017
Loading
Personal Weather Stations






























Interactive Weather Map New forecast layout! Learn more

10-Day Weather Forecast

Advertisements
Track Severe Weather on mobile